createdAt,value
2018-06-22T00:08:31.649Z,12.00
2018-06-22T00:11:01.051Z,12.10
2018-06-22T00:13:30.479Z,11.80
2018-06-22T00:16:00.045Z,11.80
2018-06-22T00:18:29.548Z,11.70
2018-06-22T00:20:59.243Z,11.70
2018-06-22T00:23:28.761Z,11.70
2018-06-22T00:25:58.158Z,11.70
2018-06-22T00:28:27.749Z,11.70
2018-06-22T00:30:57.190Z,11.70
2018-06-22T00:33:26.618Z,11.80
2018-06-22T00:35:56.163Z,11.80
2018-06-22T00:38:25.846Z,11.80
2018-06-22T00:40:55.215Z,11.80
2018-06-22T00:43:24.722Z,11.80
2018-06-22T00:45:54.183Z,11.70
2018-06-22T00:48:23.608Z,11.80
2018-06-22T00:50:53.197Z,11.80
2018-06-22T00:53:33.926Z,11.70
2018-06-22T00:56:03.447Z,11.70
2018-06-22T00:58:32.923Z,11.70
2018-06-22T01:01:06.400Z,11.70
2018-06-22T01:03:35.974Z,11.70
2018-06-22T01:06:05.486Z,11.60
2018-06-22T01:08:35.060Z,11.50
2018-06-22T01:13:34.576Z,11.40
2018-06-22T01:16:04.179Z,11.50
2018-06-22T01:18:33.695Z,11.50
2018-06-22T01:21:03.132Z,11.50
2018-06-22T01:23:32.566Z,11.40
2018-06-22T01:26:02.035Z,11.40
2018-06-22T01:28:31.595Z,11.50
2018-06-22T01:31:01.015Z,11.50
2018-06-22T01:33:30.491Z,11.60
2018-06-22T01:35:59.995Z,11.60
2018-06-22T01:38:30.580Z,11.70
2018-06-22T01:41:00.156Z,11.70
2018-06-22T01:43:29.683Z,11.70
2018-06-22T01:45:59.238Z,11.70
2018-06-22T01:48:28.814Z,11.70
2018-06-22T01:50:58.354Z,11.60
2018-06-22T01:53:27.737Z,11.60
2018-06-22T01:55:57.259Z,11.60
2018-06-22T01:58:26.839Z,11.50
2018-06-22T02:00:56.242Z,11.60
2018-06-22T02:03:25.574Z,11.60
2018-06-22T02:05:56.720Z,11.60
2018-06-22T02:10:55.406Z,11.70
2018-06-22T02:13:24.894Z,11.70
2018-06-22T02:15:54.486Z,11.70
2018-06-22T02:18:23.914Z,11.70
2018-06-22T02:20:53.510Z,11.70
2018-06-22T02:23:23.045Z,11.70
2018-06-22T02:25:52.484Z,11.70
2018-06-22T02:28:22.002Z,11.70
2018-06-22T02:30:51.551Z,11.70
2018-06-22T02:45:18.347Z,11.80
2018-06-22T02:47:47.790Z,11.80
2018-06-22T02:50:17.314Z,11.20
2018-06-22T02:52:46.722Z,11.10
2018-06-22T02:55:16.275Z,11.10
2018-06-22T02:57:46.341Z,11.10
2018-06-22T03:00:15.862Z,11.10
2018-06-22T03:02:45.351Z,11.10
2018-06-22T03:05:17.667Z,11.10
2018-06-22T03:07:47.181Z,11.20
2018-06-22T03:10:16.730Z,11.10
2018-06-22T03:12:46.244Z,11.20
2018-06-22T03:15:15.652Z,11.20
2018-06-22T03:17:45.206Z,11.20
2018-06-22T03:20:14.762Z,11.20
2018-06-22T03:22:44.299Z,11.10
2018-06-22T03:25:16.544Z,11.10
2018-06-22T03:27:46.011Z,11.20
2018-06-22T03:30:15.403Z,11.20
2018-06-22T03:32:44.772Z,11.20
2018-06-22T03:35:14.331Z,11.30
2018-06-22T03:37:43.771Z,11.30
2018-06-22T03:40:13.360Z,11.40
2018-06-22T03:42:43.005Z,11.40
2018-06-22T03:45:12.381Z,11.40
2018-06-22T03:47:41.880Z,11.40
2018-06-22T03:50:11.518Z,11.40
2018-06-22T03:52:41.066Z,11.50
2018-06-22T03:55:11.482Z,11.60
2018-06-22T03:57:41.055Z,11.60
2018-06-22T04:00:11.518Z,11.60
2018-06-22T04:02:40.879Z,11.60
2018-06-22T04:05:11.514Z,11.60
2018-06-22T04:07:46.515Z,11.60
2018-06-22T04:10:16.096Z,11.50
2018-06-22T04:12:45.616Z,11.50
2018-06-22T04:15:18.373Z,11.50
2018-06-22T04:17:53.073Z,11.50
2018-06-22T04:20:24.590Z,11.50
2018-06-22T04:22:54.407Z,11.60
2018-06-22T04:25:24.909Z,11.70
2018-06-22T04:27:54.366Z,11.70
2018-06-22T04:30:23.767Z,11.80
2018-06-22T04:32:53.090Z,11.80
2018-06-22T04:35:22.611Z,11.80
2018-06-22T04:37:52.030Z,11.80
2018-06-22T04:40:22.487Z,11.90
2018-06-22T04:42:51.947Z,12.00
2018-06-22T04:45:21.490Z,12.00
2018-06-22T04:47:50.923Z,12.10
2018-06-22T04:50:20.467Z,12.20
2018-06-22T04:52:49.943Z,12.20
2018-06-22T04:55:19.301Z,12.30
2018-06-22T04:57:48.682Z,12.30
2018-06-22T05:00:18.098Z,12.30
2018-06-22T05:02:47.491Z,12.40
2018-06-22T05:05:16.987Z,12.40
2018-06-22T05:18:22.948Z,12.50
2018-06-22T05:20:53.452Z,12.50
2018-06-22T05:23:22.882Z,12.80
2018-06-22T05:25:52.346Z,12.70
2018-06-22T05:28:21.750Z,12.80
2018-06-22T05:30:51.143Z,12.90
2018-06-22T05:33:20.708Z,13.00
2018-06-22T05:35:50.403Z,13.00
2018-06-22T05:38:19.983Z,13.10
2018-06-22T05:40:50.772Z,13.20
2018-06-22T05:43:21.335Z,13.30
2018-06-22T05:45:50.932Z,13.30
2018-06-22T05:48:20.590Z,13.40
2018-06-22T05:50:50.165Z,13.50
2018-06-22T05:53:19.758Z,13.50
2018-06-22T05:55:49.331Z,13.60
2018-06-22T05:58:18.660Z,13.50
2018-06-22T06:00:48.061Z,13.70
2018-06-22T06:03:17.467Z,13.80
2018-06-22T06:05:46.931Z,13.90
2018-06-22T06:08:16.626Z,14.00
2018-06-22T06:13:17.552Z,14.10
2018-06-22T06:15:47.326Z,14.20
2018-06-22T06:18:16.854Z,14.40
2018-06-22T06:20:46.664Z,14.50
2018-06-22T06:23:16.203Z,14.60
2018-06-22T06:25:45.623Z,14.60
2018-06-22T06:28:15.012Z,14.70
2018-06-22T06:30:44.490Z,14.80
2018-06-22T06:33:14.153Z,14.80
2018-06-22T06:35:43.608Z,14.90
2018-06-22T06:38:13.113Z,15.10
2018-06-22T06:40:42.538Z,15.10
2018-06-22T06:43:12.069Z,15.10
2018-06-22T06:45:41.858Z,15.10
2018-06-22T06:48:12.194Z,15.20
2018-06-22T06:50:48.794Z,15.40
2018-06-22T06:53:19.786Z,15.50
2018-06-22T06:55:50.634Z,15.60
2018-06-22T06:58:20.060Z,15.70
2018-06-22T07:00:49.706Z,15.90
2018-06-22T07:03:19.323Z,16.30
2018-06-22T07:05:48.711Z,16.80
2018-06-22T07:08:18.246Z,17.20
2018-06-22T07:10:48.392Z,17.60
2018-06-22T07:13:17.958Z,17.80
2018-06-22T07:15:47.466Z,17.90
2018-06-22T07:20:46.263Z,18.10
2018-06-22T07:23:15.692Z,18.10
2018-06-22T07:25:45.196Z,18.00
2018-06-22T07:28:14.566Z,18.20
2018-06-22T07:30:44.085Z,18.60
2018-06-22T07:33:15.717Z,19.10
2018-06-22T07:38:14.237Z,19.50
2018-06-22T07:40:43.769Z,19.70
2018-06-22T07:43:13.362Z,19.80
2018-06-22T07:45:42.845Z,20.10
2018-06-22T07:48:12.444Z,20.20
2018-06-22T07:50:42.003Z,20.10
2018-06-22T07:53:12.204Z,20.30
2018-06-22T07:55:41.801Z,20.50
2018-06-22T07:58:12.181Z,20.70
2018-06-22T08:03:10.730Z,20.60
2018-06-22T08:05:40.187Z,20.50
2018-06-22T08:10:38.931Z,20.30
2018-06-22T08:13:08.472Z,20.00
2018-06-22T08:15:38.008Z,19.90
2018-06-22T08:18:07.608Z,19.90
2018-06-22T08:24:23.974Z,19.70
2018-06-22T08:26:53.343Z,19.70
2018-06-22T08:29:22.725Z,19.20
2018-06-22T08:31:52.687Z,19.20
2018-06-22T08:34:22.266Z,19.30
2018-06-22T08:36:52.381Z,19.30
2018-06-22T08:39:22.026Z,19.20
2018-06-22T08:41:51.815Z,19.10
2018-06-22T08:44:21.123Z,19.00
2018-06-22T08:46:50.626Z,18.90
2018-06-22T08:49:20.163Z,18.80
2018-06-22T08:51:49.639Z,18.60
2018-06-22T08:54:19.070Z,18.40
2018-06-22T08:56:48.548Z,18.10
2018-06-22T08:59:17.965Z,18.00
2018-06-22T09:01:47.440Z,18.10
2018-06-22T09:04:18.438Z,18.10
2018-06-22T09:06:47.975Z,18.10
2018-06-22T09:09:17.640Z,18.20
2018-06-22T09:11:47.149Z,18.20
2018-06-22T09:14:16.723Z,18.00
2018-06-22T09:16:46.158Z,18.00
2018-06-22T09:19:17.950Z,18.10
2018-06-22T09:21:47.415Z,18.10
2018-06-22T09:24:16.852Z,18.00
2018-06-22T09:26:46.303Z,18.00
2018-06-22T09:29:15.727Z,18.00
2018-06-22T09:35:34.311Z,17.70
2018-06-22T09:40:32.979Z,17.30
2018-06-22T09:43:02.578Z,17.40
2018-06-22T09:45:32.159Z,17.50
2018-06-22T09:50:31.576Z,17.60
2018-06-22T09:53:01.215Z,17.70
2018-06-22T09:55:30.680Z,17.80
2018-06-22T09:58:00.204Z,17.70
2018-06-22T10:00:30.573Z,17.70
2018-06-22T10:03:00.068Z,17.70
2018-06-22T10:05:29.514Z,17.70
2018-06-22T10:07:59.188Z,17.80
2018-06-22T10:10:28.767Z,17.90
2018-06-22T10:12:58.215Z,18.00
2018-06-22T10:15:28.445Z,18.00
2018-06-22T10:17:58.062Z,17.80
2018-06-22T10:20:27.526Z,17.90
2018-06-22T10:22:57.002Z,18.00
2018-06-22T10:25:26.589Z,18.10
2018-06-22T10:30:26.548Z,18.40
2018-06-22T10:32:55.980Z,18.50
2018-06-22T10:35:25.609Z,18.70
2018-06-22T10:37:55.083Z,18.80
2018-06-22T10:40:24.666Z,19.00
2018-06-22T10:42:55.354Z,19.00
2018-06-22T10:45:24.977Z,18.90
2018-06-22T10:47:54.494Z,18.90
2018-06-22T10:50:24.108Z,18.80
2018-06-22T10:52:53.745Z,18.60
2018-06-22T10:55:23.375Z,18.60
2018-06-22T11:00:21.806Z,18.70
2018-06-22T11:02:51.250Z,18.80
2018-06-22T11:05:20.771Z,18.80
2018-06-22T11:07:50.282Z,18.70
2018-06-22T11:10:20.789Z,18.80
2018-06-22T11:12:50.386Z,18.90
2018-06-22T11:15:19.990Z,19.00
2018-06-22T11:17:49.523Z,19.10
2018-06-22T11:20:19.018Z,19.10
2018-06-22T11:22:48.592Z,19.10
2018-06-22T11:25:18.055Z,19.00
2018-06-22T11:27:47.494Z,19.00
2018-06-22T11:30:16.837Z,19.00
2018-06-22T11:32:46.283Z,18.90
2018-06-22T11:35:15.856Z,18.90
2018-06-22T11:37:45.465Z,19.00
2018-06-22T11:40:15.022Z,19.00
2018-06-22T11:42:45.541Z,19.00
2018-06-22T11:45:15.187Z,19.20
2018-06-22T11:47:44.813Z,19.20
2018-06-22T11:50:14.499Z,19.30
2018-06-22T11:52:44.199Z,19.20
2018-06-22T11:55:13.776Z,19.30
2018-06-22T11:57:43.243Z,19.40
2018-06-22T12:00:12.944Z,19.40
2018-06-22T12:02:45.950Z,19.50
2018-06-22T12:05:15.472Z,19.70
2018-06-22T12:07:45.067Z,19.70
2018-06-22T12:10:14.535Z,19.70
2018-06-22T12:12:44.171Z,19.70
2018-06-22T12:15:14.703Z,19.70
2018-06-22T12:17:44.278Z,19.80
2018-06-22T12:20:14.823Z,20.00
2018-06-22T12:22:44.319Z,20.00
2018-06-22T12:25:15.546Z,20.20
2018-06-22T12:27:44.975Z,20.20
2018-06-22T12:30:14.648Z,20.30
2018-06-22T12:35:14.364Z,20.50
2018-06-22T12:37:43.829Z,20.60
2018-06-22T12:40:13.317Z,20.50
2018-06-22T12:42:43.331Z,20.40
2018-06-22T12:45:12.915Z,20.40
2018-06-22T12:47:42.570Z,20.40
2018-06-22T12:50:13.065Z,20.50
2018-06-22T12:52:42.698Z,20.50
2018-06-22T12:55:12.833Z,20.60
2018-06-22T12:57:42.303Z,20.60
2018-06-22T13:00:12.773Z,20.50
2018-06-22T13:02:42.253Z,20.40
2018-06-22T13:05:12.761Z,20.50
2018-06-22T13:07:42.772Z,20.60
2018-06-22T13:10:13.437Z,20.70
2018-06-22T13:12:44.632Z,20.70
2018-06-22T13:34:40.024Z,20.70
2018-06-22T13:37:09.670Z,20.70
2018-06-22T13:39:39.311Z,19.70
2018-06-22T13:42:08.923Z,19.60
2018-06-22T13:55:49.117Z,19.50
2018-06-22T13:58:18.605Z,19.50
2018-06-22T14:00:48.030Z,19.00
2018-06-22T14:03:19.599Z,19.00
2018-06-22T14:05:54.395Z,19.10
2018-06-22T14:08:23.995Z,19.20
2018-06-22T14:13:22.876Z,19.20
2018-06-22T14:15:52.498Z,19.10
2018-06-22T14:18:23.718Z,19.10
2018-06-22T14:20:53.430Z,18.90
2018-06-22T14:23:22.930Z,18.80
2018-06-22T14:25:52.683Z,18.70
2018-06-22T14:28:22.559Z,18.60
2018-06-22T14:30:52.055Z,18.80
2018-06-22T14:33:21.525Z,18.70
2018-06-22T14:35:51.449Z,18.50
2018-06-22T14:38:20.913Z,18.50
2018-06-22T14:40:50.357Z,18.50
2018-06-22T14:43:19.966Z,18.50
2018-06-22T14:45:49.964Z,18.40
2018-06-22T14:48:19.558Z,18.40
2018-06-22T14:50:49.165Z,18.20
2018-06-22T14:53:24.089Z,18.20
2018-06-22T14:58:03.593Z,18.20
2018-06-22T15:00:38.383Z,18.30
2018-06-22T15:03:13.023Z,18.20
2018-06-22T15:05:47.941Z,18.20
2018-06-22T15:08:20.904Z,18.20
2018-06-22T15:10:51.996Z,18.20
2018-06-22T15:13:21.699Z,18.40
2018-06-22T15:15:51.468Z,17.90
2018-06-22T15:18:21.136Z,17.70
2018-06-22T15:20:51.204Z,17.80
2018-06-22T15:23:20.715Z,17.80
2018-06-22T15:25:50.373Z,17.80
2018-06-22T15:28:20.375Z,17.70
2018-06-22T15:30:49.902Z,17.40
2018-06-22T15:47:47.278Z,17.30
2018-06-22T15:50:22.176Z,17.30
2018-06-22T15:55:28.638Z,17.30
2018-06-22T15:57:58.084Z,17.30
2018-06-22T16:00:27.439Z,17.30
2018-06-22T16:03:02.108Z,17.40
2018-06-22T16:05:31.639Z,17.50
2018-06-22T16:08:01.248Z,17.50
2018-06-22T16:10:30.776Z,17.60
2018-06-22T16:13:00.851Z,17.70
2018-06-22T16:15:35.712Z,17.80
2018-06-22T16:18:10.427Z,17.90
2018-06-22T16:20:45.203Z,17.90
2018-06-22T16:23:19.891Z,17.90
2018-06-22T16:25:56.032Z,17.90
2018-06-22T16:28:25.475Z,18.00
2018-06-22T16:30:54.903Z,18.00
2018-06-22T16:33:24.446Z,18.00
2018-06-22T16:38:23.051Z,18.10
2018-06-22T16:40:52.486Z,18.20
2018-06-22T16:54:36.922Z,18.20
2018-06-22T16:57:06.720Z,18.30
2018-06-22T17:01:39.416Z,18.00
2018-06-22T17:04:09.223Z,18.00
2018-06-22T17:08:45.807Z,18.00
2018-06-22T17:11:20.496Z,18.10
2018-06-22T17:13:56.198Z,18.30
2018-06-22T17:17:32.520Z,18.30
2018-06-22T17:20:02.135Z,18.30
2018-06-22T17:22:31.637Z,18.40
2018-06-22T17:25:04.533Z,18.40
2018-06-22T17:27:33.975Z,18.40
2018-06-22T17:30:03.428Z,18.40
2018-06-22T17:32:33.026Z,18.40
2018-06-22T17:35:02.684Z,18.50
2018-06-22T17:37:32.108Z,18.40
2018-06-22T17:40:01.928Z,18.40
2018-06-22T17:42:31.550Z,18.30
2018-06-22T17:45:00.912Z,18.30
2018-06-22T17:47:30.466Z,18.30
2018-06-22T17:50:33.549Z,18.40
2018-06-22T17:53:03.072Z,18.30
2018-06-22T17:55:32.863Z,18.20
2018-06-22T17:58:02.303Z,18.20
2018-06-22T18:00:38.145Z,18.20
2018-06-22T18:03:12.951Z,18.10
2018-06-22T18:05:47.752Z,18.00
2018-06-22T18:08:22.452Z,17.90
2018-06-22T18:10:57.243Z,17.90
2018-06-22T18:13:26.803Z,17.80
2018-06-22T18:15:56.271Z,17.80
2018-06-22T18:18:25.823Z,17.70
2018-06-22T18:20:55.379Z,17.70
2018-06-22T18:23:24.775Z,17.60
2018-06-22T18:25:54.096Z,17.50
2018-06-22T18:28:23.542Z,17.40
2018-06-22T18:30:52.934Z,17.30
2018-06-22T18:33:22.379Z,17.20
2018-06-22T18:35:51.867Z,17.10
2018-06-22T18:38:21.308Z,17.10
2018-06-22T18:40:50.699Z,17.00
2018-06-22T18:43:25.418Z,17.00
2018-06-22T18:45:54.927Z,16.90
2018-06-22T18:48:24.414Z,16.90
2018-06-22T19:01:43.726Z,16.80
2018-06-22T19:04:13.863Z,16.70
2018-06-22T19:06:43.286Z,16.20
2018-06-22T19:09:13.614Z,16.10
2018-06-22T19:11:43.114Z,16.10
2018-06-22T19:14:12.473Z,16.00
2018-06-22T19:16:41.920Z,15.90
2018-06-22T19:21:40.819Z,15.80
2018-06-22T19:24:10.361Z,15.70
2018-06-22T19:26:39.780Z,15.30
2018-06-22T19:29:09.223Z,15.20
2018-06-22T19:31:38.572Z,15.20
2018-06-22T19:34:08.107Z,15.10
2018-06-22T19:36:39.715Z,14.80
2018-06-22T19:39:10.314Z,14.80
2018-06-22T19:41:40.051Z,14.80
2018-06-22T19:44:15.775Z,14.60
2018-06-22T19:46:50.581Z,14.70
2018-06-22T19:49:25.821Z,14.70
2018-06-22T19:52:00.438Z,14.70
2018-06-22T19:54:29.823Z,14.80
2018-06-22T19:56:59.411Z,14.80
2018-06-22T20:01:57.786Z,14.80
2018-06-22T20:04:28.118Z,14.80
2018-06-22T20:06:57.527Z,14.80
2018-06-22T20:09:27.179Z,14.80
2018-06-22T20:11:56.694Z,14.80
2018-06-22T20:14:26.209Z,14.80
2018-06-22T20:16:55.667Z,14.80
2018-06-22T20:19:25.416Z,14.80
2018-06-22T20:21:55.129Z,14.80
2018-06-22T20:24:30.044Z,14.80
2018-06-22T20:26:59.603Z,14.80
2018-06-22T20:29:28.986Z,14.80
2018-06-22T20:31:59.648Z,14.70
2018-06-22T20:34:34.551Z,14.70
2018-06-22T20:37:09.195Z,14.70
2018-06-22T20:39:43.914Z,14.60
2018-06-22T20:42:19.418Z,14.60
2018-06-22T20:44:55.702Z,14.60
2018-06-22T20:47:30.471Z,14.60
2018-06-22T20:52:34.682Z,14.50
2018-06-22T20:55:04.351Z,14.50
2018-06-22T20:57:33.850Z,14.50
2018-06-22T21:00:03.320Z,14.50
2018-06-22T21:02:32.826Z,14.50
2018-06-22T21:05:02.263Z,14.50
2018-06-22T21:07:32.553Z,14.40
2018-06-22T21:10:01.997Z,14.40
2018-06-22T21:12:40.412Z,14.40
2018-06-22T21:15:01.839Z,14.40
2018-06-22T21:17:31.527Z,14.40
2018-06-22T21:20:01.232Z,14.40
2018-06-22T21:22:30.786Z,14.50
2018-06-22T21:25:00.271Z,14.50
2018-06-22T21:27:34.782Z,14.50
2018-06-22T21:30:10.672Z,14.50
2018-06-22T21:32:45.458Z,14.50
2018-06-22T21:35:20.139Z,14.50
2018-06-22T21:37:54.804Z,14.50
2018-06-22T21:40:24.150Z,14.50
2018-06-22T21:42:53.522Z,14.50
2018-06-22T21:45:25.269Z,14.50
2018-06-22T21:47:54.758Z,14.50
2018-06-22T21:50:24.160Z,14.50
2018-06-22T21:52:53.633Z,14.50
2018-06-22T21:55:23.098Z,14.50
2018-06-22T21:57:52.677Z,14.50
2018-06-22T22:00:28.578Z,14.50
2018-06-22T22:02:59.363Z,14.50
2018-06-22T22:05:29.480Z,14.50
2018-06-22T22:07:58.950Z,14.50
2018-06-22T22:10:34.395Z,14.60
2018-06-22T22:13:03.986Z,14.60
2018-06-22T22:15:34.359Z,14.60
2018-06-22T22:18:05.091Z,14.60
2018-06-22T22:20:34.595Z,14.60
2018-06-22T22:23:04.217Z,14.60
2018-06-22T22:25:33.756Z,14.60
2018-06-22T22:28:03.362Z,14.60
2018-06-22T22:30:32.810Z,14.60
2018-06-22T22:33:02.226Z,14.60
2018-06-22T22:35:31.625Z,14.60
2018-06-22T22:38:00.999Z,14.60
2018-06-22T22:40:32.378Z,14.60
2018-06-22T22:43:01.915Z,14.60
2018-06-22T22:45:31.566Z,14.60
2018-06-22T22:48:01.165Z,14.60
2018-06-22T22:50:30.878Z,14.60
2018-06-22T22:53:00.385Z,14.60
2018-06-22T22:55:36.366Z,14.50
2018-06-22T22:58:05.930Z,14.50
2018-06-22T23:00:36.466Z,14.50
2018-06-22T23:03:05.991Z,14.50
2018-06-22T23:05:35.458Z,14.50
2018-06-22T23:08:08.330Z,14.50
2018-06-22T23:10:37.706Z,14.50
2018-06-22T23:13:07.218Z,14.50
2018-06-22T23:15:36.782Z,14.50
2018-06-22T23:18:06.409Z,14.50
2018-06-22T23:20:35.914Z,14.50
2018-06-22T23:23:16.702Z,14.50
2018-06-22T23:25:46.203Z,14.40
2018-06-22T23:28:15.591Z,14.50
2018-06-22T23:30:45.158Z,14.40
2018-06-22T23:33:14.647Z,14.40
2018-06-22T23:35:44.168Z,14.40
2018-06-22T23:38:14.506Z,14.40
2018-06-22T23:40:43.827Z,14.40
2018-06-22T23:43:13.211Z,14.40
2018-06-22T23:45:42.638Z,14.40
2018-06-22T23:48:12.483Z,14.40
2018-06-22T23:50:42.158Z,14.30
2018-06-22T23:53:11.854Z,14.30
2018-06-22T23:55:41.227Z,14.30
2018-06-22T23:58:10.651Z,14.40
